Latest Coastal Weather Observations for Dum In Mirrie

IDD60701

Issued at 11:11 am CST Wednesday 18 January 2017 (issued every 10 minutes, with the page automatically refreshed every 10 minutes)

About coastal observations | Map of coastal stations | Coastal observations for NT | Marine services | Other Formats
Station Details ID: 014277 Name: DUM IN MIRRIE AIRSTRIP Lat: -12.63 Lon: 130.37 Height: 3.5 m
Data from the previous 72 hours. | See also: Recent months at Dum In Mirrie
Date/Time
CST
Temp
°C
Wind Pressure Rain since
9am
mm
Weather Cloud Vis
km
Sea
Height
m
Swell
Dir  Spd
kts
Gust
kts
hPa Trend Height
m
Period
s
Dir
18/11:00am 31.8 NNW 5 10 1009.6 - 0.0 - - - - - - -
18/10:30am 31.3 NNW 5 8 1009.9 - 0.0 - - - - - - -
18/10:00am 31.3 NNW 4 7 1010.0 - 0.0 - - - - - - -
18/09:30am 30.3 NNW 5 8 1010.2 - 0.0 - - - - - - -
18/09:00am 30.6 NW 3 6 1010.1 - 0.4 - - - - - - -
18/08:30am 30.6 NW 4 6 1010.0 - 0.4 - - - - - - -
18/08:00am 29.9 NW 3 5 1009.9 - 0.4 - - - - - - -
18/07:30am 29.1 WNW 3 5 1009.7 - 0.4 - - - - - - -
18/07:00am 28.4 NW 3 5 1009.3 - 0.4 - - - - - - -
18/06:30am 28.4 NW 4 7 1008.9 - 0.4 - - - - - - -
18/06:00am 28.4 NW 3 7 1008.4 - 0.4 - - - - - - -
18/05:30am 28.3 WNW 4 8 1007.8 - 0.4 - - - - - - -
18/05:00am 28.4 WNW 5 9 1007.6 - 0.4 - - - - - - -
18/04:30am 28.4 WNW 5 8 1007.5 - 0.4 - - - - - - -
18/04:00am 28.4 WNW 6 9 1007.4 - 0.4 - - - - - - -
18/03:30am 28.4 NW 5 10 1007.5 - 0.4 - - - - - - -
18/03:00am 28.7 NW 5 9 1007.7 - 0.4 - - - - - - -
18/02:30am 28.5 NW 5 8 1007.6 - 0.4 - - - - - - -
18/02:00am 28.4 NW 4 9 1008.0 - 0.4 - - - - - - -
18/01:30am 28.1 NW 4 7 1008.3 - 0.4 - - - - - - -
18/01:00am 28.0 NNW 4 7 1008.7 - 0.4 - - - - - - -
18/12:30am 28.0 NNW 5 9 1009.2 - 0.4 - - - - - - -
18/12:00am 28.4 NNW 7 12 1009.2 - 0.4 - - - - - - -
 
Date/Time
CST
Temp
°C
Wind Pressure Rain since
9am
mm
Weather Cloud Vis
km
Sea
Height
m
Swell
Dir  Spd
kts
Gust
kts
hPa Trend Height
m
Period
s
Dir
17/11:30pm 28.1 NW 5 8 1009.6 - 0.4 - - - - - - -
17/11:00pm 27.2 N 9 14 1009.7 - 0.4 - - - - - - -
17/10:30pm 29.2 NW 6 11 1009.5 - 0.0 - - - - - - -
17/10:00pm 28.9 NW 3 7 1009.3 - 0.0 - - - - - - -
17/09:30pm 28.8 NW 3 6 1009.3 - 0.0 - - - - - - -
17/09:00pm 29.0 NW 4 7 1009.1 - 0.0 - - - - - - -
17/08:30pm 28.8 NW 5 10 1008.8 - 0.0 - - - - - - -
17/08:00pm 28.9 WNW 7 17 1008.4 - 0.0 - - - - - - -
17/07:30pm 29.8 NW 5 8 1008.0 - 0.0 - - - - - - -
17/07:00pm 30.0 NW 4 7 1007.6 - 0.0 - - - - - - -
17/06:30pm 30.7 NW 5 11 1007.2 - 0.0 - - - - - - -
17/06:00pm 30.4 NW 4 8 1006.8 - 0.0 - - - - - - -
17/05:30pm 31.2 NW 6 10 1006.2 - 0.0 - - - - - - -
17/05:00pm 31.6 NW 6 9 1006.1 - 0.0 - - - - - - -
17/04:30pm 31.6 NW 6 10 1005.9 - 0.0 - - - - - - -
17/04:00pm 32.0 NNW 6 10 1006.1 - 0.0 - - - - - - -
17/03:30pm 32.2 NW 5 10 1006.4 - 0.0 - - - - - - -
17/03:00pm 31.6 NNW 6 10 1006.9 - 0.0 - - - - - - -
17/02:30pm 31.8 NNW 6 10 1007.1 - 0.0 - - - - - - -
17/02:00pm 31.4 NW 5 10 1007.5 - 0.0 - - - - - - -
17/01:30pm 32.0 NW 5 9 1007.7 - 0.0 - - - - - - -
17/01:00pm 31.6 NW 6 9 1007.7 - 0.0 - - - - - - -
17/12:30pm 31.8 N 5 9 1007.7 - 0.0 - - - - - - -
17/12:00pm 31.4 NNW 5 8 1007.9 - 0.0 - - - - - - -
17/11:30am 31.2 NW 5 8 1008.4 - 0.0 - - - - - - -
17/11:00am 31.2 NW 5 9 1008.7 - 0.0 - - - - - - -
17/10:30am 31.2 NW 4 8 1008.9 - 0.0 - - - - - - -
17/10:00am 31.1 NNW 4 9 1009.1 - 0.0 - - - - - - -
17/09:30am 30.0 NNW 2 6 1009.1 - 0.0 - - - - - - -
17/09:00am 29.5 NE 3 5 1008.7 - - - - - - - - -
17/08:30am 28.5 NE 3 5 1008.5 - - - - - - - - -
17/08:00am 27.4 E 3 6 1008.3 - - - - - - - - -
17/07:30am 27.2 CALM 0 0 1008.1 - - - - - - - - -
17/07:00am 26.4 CALM 0 0 1007.6 - - - - - - - - -
17/06:30am 26.8 CALM 0 0 1007.2 - - - - - - - - -
17/06:00am 27.0 SSW 2 5 1007.0 - - - - - - - - -
17/05:30am 27.1 WNW 1 3 1006.7 - - - - - - - - -
17/05:00am 26.1 CALM 0 0 1006.6 - - - - - - - - -
17/04:30am 26.5 CALM 0 1 1006.3 - - - - - - - - -
17/04:00am 26.4 NNW 1 2 1006.3 - - - - - - - - -
17/03:30am 26.5 CALM 0 2 1006.3 - - - - - - - - -
17/03:00am 26.1 NNW 1 4 1006.2 - 0.0 - - - - - - -
17/02:30am 26.2 CALM 0 1 1006.5 - - - - - - - - -
17/02:00am 26.6 NNW 1 3 1006.5 - - - - - - - - -
17/01:30am 26.8 NNW 3 5 1006.8 - - - - - - - - -
17/01:00am 26.4 NNW 3 5 1007.3 - - - - - - - - -
17/12:30am 25.2 CALM 0 0 1007.6 - - - - - - - - -
17/12:00am 25.3 CALM 0 0 1007.7 - - - - - - - - -
 
Date/Time
CST
Temp
°C
Wind Pressure Rain since
9am
mm
Weather Cloud Vis
km
Sea
Height
m
Swell
Dir  Spd
kts
Gust
kts
hPa Trend Height
m
Period
s
Dir
16/11:30pm 25.4 CALM 0 0 1007.8 - - - - - - - - -
16/11:00pm 25.8 CALM 0 0 1007.9 - - - - - - - - -
16/10:30pm 25.4 CALM 0 0 1007.7 - - - - - - - - -
16/10:00pm 25.8 CALM 0 0 1007.6 - - - - - - - - -
16/09:30pm 26.1 ESE 1 2 1007.6 - - - - - - - - -
16/09:00pm 26.2 CALM 0 2 1007.5 - - - - - - - - -
16/08:30pm 26.2 CALM 0 2 1007.1 - - - - - - - - -
16/08:00pm 26.4 E 1 2 1006.7 - - - - - - - - -
16/07:30pm 26.4 ESE 2 4 1006.5 - - - - - - - - -
16/07:00pm 26.8 S 2 4 1006.4 - - - - - - - - -
16/06:30pm 26.9 S 2 5 1006.4 - - - - - - - - -
16/06:00pm 27.1 ESE 3 4 1005.9 - - - - - - - - -
16/05:30pm 27.3 S 4 7 1006.3 - - - - - - - - -
16/05:00pm 28.0 SSW 6 13 1006.1 - - - - - - - - -
16/04:30pm 29.1 SW 3 10 1006.0 - - - - - - - - -
16/04:00pm 29.3 SW 3 7 1006.0 - - - - - - - - -
16/03:30pm 29.6 SW 3 8 1006.4 - - - - - - - - -
16/02:30pm 29.5 W 11 16 1006.1 - - - - - - - - -
16/02:00pm 29.8 W 8 15 1006.6 - - - - - - - - -
16/01:30pm 31.5 W 6 10 1007.1 - - - - - - - - -
16/12:30pm 31.8 W 6 - 1007.8 - - - - - - - - -
16/05:30am 28.7 W 5 8 1006.1 - 0.0 - - - - - - -
16/05:00am 28.8 W 4 7 1005.9 - 0.0 - - - - - - -
16/04:30am 28.9 W 4 8 1005.8 - 0.0 - - - - - - -
16/04:00am 28.9 W 4 8 1005.9 - 0.0 - - - - - - -
16/03:30am 28.9 W 5 10 1005.9 - 0.0 - - - - - - -
16/03:00am 28.8 W 5 9 1006.2 - 0.0 - - - - - - -
16/02:30am 28.8 W 4 10 1006.1 - 0.0 - - - - - - -
16/02:00am 28.7 WNW 4 9 1006.4 - 0.0 - - - - - - -
16/01:30am 28.8 WNW 5 8 1006.6 - 0.0 - - - - - - -
16/01:00am 28.9 WNW 4 8 1006.9 - 0.0 - - - - - - -
16/12:30am 29.0 WNW 4 7 1007.1 - 0.0 - - - - - - -
16/12:00am 29.1 W 4 7 1007.3 - 0.0 - - - - - - -
 
Date/Time
CST
Temp
°C
Wind Pressure Rain since
9am
mm
Weather Cloud Vis
km
Sea
Height
m
Swell
Dir  Spd
kts
Gust
kts
hPa Trend Height
m
Period
s
Dir
15/11:30pm 29.1 WNW 4 8 1007.7 - 0.0 - - - - - - -
15/11:00pm 29.1 WNW 4 7 1008.0 - 0.0 - - - - - - -
15/10:30pm 29.3 WNW 4 7 1008.0 - 0.0 - - - - - - -
15/10:00pm 29.2 WNW 4 7 1007.6 - 0.0 - - - - - - -
15/09:30pm 29.2 WNW 4 7 1007.2 - 0.0 - - - - - - -
15/09:00pm 29.3 W 4 7 1007.1 - 0.0 - - - - - - -
15/08:30pm 29.4 W 4 8 1007.0 - 0.0 - - - - - - -
15/08:00pm 29.4 W 4 8 1006.9 - 0.0 - - - - - - -
15/07:30pm 29.5 W 4 7 1006.9 - 0.0 - - - - - - -
15/07:00pm 29.7 W 4 8 1006.9 - 0.0 - - - - - - -
15/06:30pm 30.1 W 4 7 1006.8 - 0.0 - - - - - - -
15/06:00pm 30.3 W 4 8 1006.4 - 0.0 - - - - - - -
15/05:30pm 30.6 W 5 8 1006.1 - 0.0 - - - - - - -
15/05:00pm 31.4 W 5 8 1006.0 - 0.0 - - - - - - -
15/04:30pm 31.9 W 6 10 1006.1 - 0.0 - - - - - - -
15/04:00pm 32.0 W 6 10 1006.4 - 0.0 - - - - - - -
15/03:30pm 32.4 W 5 9 1006.6 - 0.0 - - - - - - -
15/03:00pm 31.9 W 6 10 1006.7 - 0.0 - - - - - - -
15/02:30pm 32.0 W 6 11 1007.2 - 0.0 - - - - - - -
15/02:00pm 31.8 W 5 9 1007.8 - 0.0 - - - - - - -
15/01:30pm 31.5 W 5 8 1008.1 - 0.0 - - - - - - -
15/01:00pm 31.7 W 5 8 1008.5 - 0.0 - - - - - - -
15/12:30pm 31.3 W 5 8 1008.5 - 0.0 - - - - - - -
15/12:00pm 31.3 W 5 8 1008.6 - 0.0 - - - - - - -
15/11:30am 31.9 W 4 6 1009.0 - 0.0 - - - - - - -

Other Formats:

Comma delimited format used in spreadsheet applications
http://www.bom.gov.au/fwo/IDD60701/IDD60701.94116.axf

JavaScript Object Notation format (JSON) in row-major order
http://www.bom.gov.au/fwo/IDD60701/IDD60701.94116.json